createdAt,value
2023-03-06T00:00:54.684Z,1012.0
2023-03-06T00:05:54.550Z,1011.9
2023-03-06T00:10:54.221Z,1011.9
2023-03-06T00:15:56.052Z,1011.9
2023-03-06T00:20:53.860Z,1011.9
2023-03-06T00:25:53.605Z,1011.9
2023-03-06T00:30:53.420Z,1011.8
2023-03-06T00:35:53.216Z,1011.8
2023-03-06T00:40:52.956Z,1011.7
2023-03-06T00:45:52.798Z,1011.7
2023-03-06T00:50:52.565Z,1011.7
2023-03-06T00:55:54.799Z,1011.6
2023-03-06T01:00:52.072Z,1011.6
2023-03-06T01:05:51.811Z,1011.5
2023-03-06T01:10:51.596Z,1011.5
2023-03-06T01:15:51.358Z,1011.4
2023-03-06T01:20:51.142Z,1011.4
2023-03-06T01:25:50.938Z,1011.3
2023-03-06T01:30:50.670Z,1011.2
2023-03-06T01:35:50.444Z,1011.2
2023-03-06T01:40:50.187Z,1011.2
2023-03-06T01:45:49.918Z,1011.2
2023-03-06T01:50:49.669Z,1011.1
2023-03-06T01:55:49.423Z,1011.0
2023-03-06T02:00:49.262Z,1010.9
2023-03-06T02:05:48.869Z,1010.9
2023-03-06T02:10:48.717Z,1010.8
2023-03-06T02:15:48.364Z,1010.8
2023-03-06T02:20:51.371Z,1010.8
2023-03-06T02:25:47.854Z,1010.8
2023-03-06T02:30:47.660Z,1010.7
2023-03-06T02:40:47.035Z,1010.6
2023-03-06T02:45:46.781Z,1010.6
2023-03-06T02:50:46.464Z,1010.6
2023-03-06T02:55:46.198Z,1010.5
2023-03-06T03:00:45.974Z,1010.5
2023-03-06T03:05:45.712Z,1010.4
2023-03-06T03:10:45.406Z,1010.4
2023-03-06T03:15:45.208Z,1010.3
2023-03-06T03:25:44.781Z,1010.1
2023-03-06T03:30:44.398Z,1010.1
2023-03-06T03:35:44.202Z,1010.0
2023-03-06T03:40:43.937Z,1009.9
2023-03-06T03:45:43.720Z,1009.9
2023-03-06T03:50:43.449Z,1009.9
2023-03-06T03:55:43.156Z,1009.8
2023-03-06T04:00:42.890Z,1009.8
2023-03-06T04:05:42.615Z,1009.8
2023-03-06T04:10:42.351Z,1009.7
2023-03-06T04:15:42.092Z,1009.7
2023-03-06T04:20:41.819Z,1009.6
2023-03-06T04:25:41.595Z,1009.6
2023-03-06T04:30:41.350Z,1009.5
2023-03-06T04:35:41.162Z,1009.5
2023-03-06T04:40:40.822Z,1009.4
2023-03-06T04:45:40.568Z,1009.3
2023-03-06T04:50:40.285Z,1009.2
2023-03-06T04:55:39.992Z,1009.1
2023-03-06T05:00:39.826Z,1009.1
2023-03-06T05:05:39.504Z,1009.1
2023-03-06T05:10:40.588Z,1009.1
2023-03-06T05:15:38.994Z,1009.0
2023-03-06T05:20:38.746Z,1009.0
2023-03-06T05:30:38.246Z,1008.9
2023-03-06T05:40:37.716Z,1008.9
2023-03-06T05:45:37.550Z,1008.8
2023-03-06T05:50:37.368Z,1008.8
2023-03-06T05:55:37.037Z,1008.7
2023-03-06T06:00:36.848Z,1008.8
2023-03-06T06:05:36.587Z,1008.7
2023-03-06T06:10:36.402Z,1008.6
2023-03-06T06:15:36.162Z,1008.5
2023-03-06T06:20:35.919Z,1008.5
2023-03-06T06:25:35.682Z,1008.4
2023-03-06T06:30:35.428Z,1008.4
2023-03-06T06:35:35.262Z,1008.4
2023-03-06T06:40:35.013Z,1008.4
2023-03-06T06:45:34.813Z,1008.5
2023-03-06T06:50:34.613Z,1008.4
2023-03-06T06:55:34.350Z,1008.3
2023-03-06T07:00:34.156Z,1008.3
2023-03-06T07:05:36.421Z,1008.3
2023-03-06T07:10:33.718Z,1008.3
2023-03-06T07:15:33.508Z,1008.3
2023-03-06T07:20:33.186Z,1008.3
2023-03-06T07:25:32.945Z,1008.2
2023-03-06T07:30:32.804Z,1008.2
2023-03-06T07:35:32.601Z,1008.1
2023-03-06T07:40:32.331Z,1008.3
2023-03-06T07:45:32.147Z,1008.2
2023-03-06T07:50:34.525Z,1008.1
2023-03-06T07:55:31.810Z,1008.1
2023-03-06T08:00:31.694Z,1008.1
2023-03-06T08:05:32.264Z,1008.0
2023-03-06T08:10:31.364Z,1008.0
2023-03-06T08:20:31.067Z,1008.0
2023-03-06T08:25:30.880Z,1008.0
2023-03-06T08:30:30.800Z,1008.1
2023-03-06T08:35:30.639Z,1008.0
2023-03-06T08:40:30.561Z,1008.0
2023-03-06T08:45:30.344Z,1007.9
2023-03-06T08:50:30.229Z,1008.0
2023-03-06T08:55:30.127Z,1008.0
2023-03-06T09:00:30.081Z,1008.0
2023-03-06T09:05:33.883Z,1007.9
2023-03-06T09:10:29.884Z,1007.9
2023-03-06T09:15:29.723Z,1007.9
2023-03-06T09:20:29.659Z,1007.9
2023-03-06T09:25:29.541Z,1007.8
2023-03-06T09:30:29.477Z,1007.8
2023-03-06T09:35:29.454Z,1007.8
2023-03-06T09:40:29.381Z,1007.8
2023-03-06T09:45:29.258Z,1007.7
2023-03-06T09:50:29.267Z,1007.7
2023-03-06T09:55:29.204Z,1007.7
2023-03-06T10:00:29.184Z,1007.7
2023-03-06T10:05:29.128Z,1007.6
2023-03-06T10:10:29.102Z,1007.6
2023-03-06T10:20:29.087Z,1007.5
2023-03-06T10:25:29.103Z,1007.5
2023-03-06T10:30:31.582Z,1007.5
2023-03-06T10:35:30.712Z,1007.5
2023-03-06T10:40:29.131Z,1007.5
2023-03-06T10:45:35.189Z,1007.5
2023-03-06T10:50:29.077Z,1007.4
2023-03-06T10:55:29.058Z,1007.3
2023-03-06T11:00:29.033Z,1007.3
2023-03-06T11:05:28.982Z,1007.3
2023-03-06T11:10:28.989Z,1007.2
2023-03-06T11:15:28.963Z,1007.2
2023-03-06T11:20:33.592Z,1007.1
2023-03-06T11:25:28.957Z,1007.1
2023-03-06T11:30:28.923Z,1007.1
2023-03-06T11:35:28.825Z,1007.0
2023-03-06T11:40:28.980Z,1006.9
2023-03-06T11:45:28.805Z,1006.9
2023-03-06T11:50:29.009Z,1006.8
2023-03-06T11:55:28.892Z,1006.8
2023-03-06T12:00:29.151Z,1006.8
2023-03-06T12:05:29.045Z,1006.7
2023-03-06T12:10:29.211Z,1006.6
2023-03-06T12:15:29.090Z,1006.6
2023-03-06T12:20:29.331Z,1006.5
2023-03-06T12:25:29.256Z,1006.5
2023-03-06T12:30:29.435Z,1006.3
2023-03-06T12:35:29.318Z,1006.3
2023-03-06T12:40:29.559Z,1006.2
2023-03-06T12:45:29.386Z,1006.2
2023-03-06T12:50:29.638Z,1006.2
2023-03-06T13:00:29.686Z,1006.1
2023-03-06T13:05:29.536Z,1006.0
2023-03-06T13:10:29.713Z,1006.1
2023-03-06T13:15:29.599Z,1006.2
2023-03-06T13:20:29.715Z,1006.2
2023-03-06T13:25:29.595Z,1006.4
2023-03-06T13:30:29.707Z,1006.2
2023-03-06T13:35:29.671Z,1006.0
2023-03-06T13:45:29.303Z,1005.8
2023-03-06T13:50:29.428Z,1005.8
2023-03-06T13:55:29.160Z,1005.7
2023-03-06T14:00:29.235Z,1005.7
2023-03-06T14:05:29.038Z,1005.7
2023-03-06T14:10:33.128Z,1005.6
2023-03-06T14:15:28.907Z,1005.6
2023-03-06T14:20:29.044Z,1005.5
2023-03-06T14:25:28.827Z,1005.4
2023-03-06T14:30:28.999Z,1005.3
2023-03-06T14:35:28.809Z,1005.4
2023-03-06T14:40:28.934Z,1005.3
2023-03-06T14:45:28.726Z,1005.3
2023-03-06T14:50:28.849Z,1005.2
2023-03-06T14:55:28.618Z,1005.2
2023-03-06T15:05:28.536Z,1005.1
2023-03-06T15:10:28.805Z,1005.0
2023-03-06T15:15:28.435Z,1005.1
2023-03-06T15:25:28.306Z,1005.3
2023-03-06T15:30:28.390Z,1005.1
2023-03-06T15:35:28.204Z,1005.0
2023-03-06T15:40:28.322Z,1004.9
2023-03-06T15:45:28.117Z,1005.0
2023-03-06T15:50:28.167Z,1004.9
2023-03-06T15:55:27.826Z,1004.8
2023-03-06T16:05:27.650Z,1004.7
2023-03-06T16:10:27.736Z,1004.7
2023-03-06T16:15:27.493Z,1004.7
2023-03-06T16:20:27.550Z,1004.6
2023-03-06T16:25:27.312Z,1004.5
2023-03-06T16:35:27.126Z,1004.4
2023-03-06T16:40:27.138Z,1004.3
2023-03-06T16:45:26.890Z,1004.4
2023-03-06T16:50:26.917Z,1004.4
2023-03-06T16:55:26.637Z,1004.3
2023-03-06T17:00:26.725Z,1004.3
2023-03-06T17:10:26.522Z,1004.2
2023-03-06T17:15:26.215Z,1004.2
2023-03-06T17:20:28.751Z,1004.2
2023-03-06T17:25:25.959Z,1004.1
2023-03-06T17:30:25.961Z,1004.1
2023-03-06T17:35:25.791Z,1004.1
2023-03-06T17:40:25.713Z,1004.0
2023-03-06T17:45:25.379Z,1004.0
2023-03-06T17:50:25.398Z,1004.0
2023-03-06T17:55:25.116Z,1004.0
2023-03-06T18:00:25.087Z,1004.0
2023-03-06T18:05:24.829Z,1004.0
2023-03-06T18:10:24.855Z,1003.9
2023-03-06T18:20:24.643Z,1004.0
2023-03-06T18:25:24.524Z,1003.9
2023-03-06T18:30:24.435Z,1003.9
2023-03-06T18:35:24.423Z,1003.9
2023-03-06T18:40:24.958Z,1003.9
2023-03-06T18:50:23.934Z,1003.9
2023-03-06T18:55:23.859Z,1003.9
2023-03-06T19:00:23.711Z,1003.9
2023-03-06T19:05:23.628Z,1003.9
2023-03-06T19:10:23.536Z,1003.8
2023-03-06T19:20:23.336Z,1003.7
2023-03-06T19:25:23.190Z,1003.6
2023-03-06T19:30:23.070Z,1003.5
2023-03-06T19:35:23.084Z,1003.5
2023-03-06T19:40:22.813Z,1003.5
2023-03-06T19:45:22.700Z,1003.4
2023-03-06T19:50:22.634Z,1003.4
2023-03-06T19:55:22.522Z,1003.3
2023-03-06T20:00:22.326Z,1003.3
2023-03-06T20:05:22.268Z,1003.3
2023-03-06T20:10:22.097Z,1003.3
2023-03-06T20:15:22.097Z,1003.3
2023-03-06T20:20:21.902Z,1003.3
2023-03-06T20:25:21.769Z,1003.2
2023-03-06T20:30:21.712Z,1003.2
2023-03-06T20:35:21.728Z,1003.1
2023-03-06T20:40:21.518Z,1003.1
2023-03-06T20:50:21.261Z,1003.2
2023-03-06T20:55:21.176Z,1003.2
2023-03-06T21:00:21.954Z,1003.2
2023-03-06T21:05:20.972Z,1003.2
2023-03-06T21:10:22.845Z,1003.2
2023-03-06T21:15:20.736Z,1003.2
2023-03-06T21:20:20.593Z,1003.1
2023-03-06T21:25:20.546Z,1003.0
2023-03-06T21:30:20.361Z,1003.0
2023-03-06T21:35:20.288Z,1003.0
2023-03-06T21:40:20.138Z,1003.0
2023-03-06T21:45:19.985Z,1002.9
2023-03-06T21:50:19.806Z,1002.8
2023-03-06T21:55:19.716Z,1002.7
2023-03-06T22:00:19.574Z,1002.7
2023-03-06T22:10:19.360Z,1002.6
2023-03-06T22:15:19.312Z,1002.5
2023-03-06T22:20:19.161Z,1002.4
2023-03-06T22:25:19.079Z,1002.4
2023-03-06T22:30:18.964Z,1002.3
2023-03-06T22:35:18.881Z,1002.4
2023-03-06T22:40:18.726Z,1002.4
2023-03-06T22:45:18.615Z,1002.3
2023-03-06T22:50:18.498Z,1002.3
2023-03-06T22:55:18.399Z,1002.2
2023-03-06T23:00:18.307Z,1002.1
2023-03-06T23:05:18.224Z,1002.1
2023-03-06T23:10:18.264Z,1002.1
2023-03-06T23:20:20.421Z,1002.0
2023-03-06T23:25:17.851Z,1002.0
2023-03-06T23:30:17.739Z,1002.0
2023-03-06T23:35:17.670Z,1001.9
2023-03-06T23:40:19.530Z,1001.9
2023-03-06T23:45:17.411Z,1001.8
2023-03-06T23:50:17.288Z,1001.7
2023-03-06T23:55:17.171Z,1001.6
